sensor_id;sensor_type;location;lat;lon;timestamp;P1;durP1;ratioP1;P2;durP2;ratioP2
20711;SDS011;10517;50.742;4.224;2023-04-25T00:02:09;11.53;;;3.60;;
20711;SDS011;10517;50.742;4.224;2023-04-25T00:04:35;6.20;;;2.20;;
20711;SDS011;10517;50.742;4.224;2023-04-25T00:07:02;7.80;;;2.50;;
20711;SDS011;10517;50.742;4.224;2023-04-25T00:09:28;5.47;;;2.63;;
20711;SDS011;10517;50.742;4.224;2023-04-25T00:11:54;10.67;;;2.57;;
20711;SDS011;10517;50.742;4.224;2023-04-25T00:14:20;12.80;;;2.27;;
20711;SDS011;10517;50.742;4.224;2023-04-25T00:16:46;6.13;;;1.80;;
20711;SDS011;10517;50.742;4.224;2023-04-25T00:19:13;9.30;;;2.03;;
20711;SDS011;10517;50.742;4.224;2023-04-25T00:21:39;8.37;;;2.23;;
20711;SDS011;10517;50.742;4.224;2023-04-25T00:24:07;3.03;;;1.93;;
20711;SDS011;10517;50.742;4.224;2023-04-25T00:26:33;8.60;;;2.50;;
20711;SDS011;10517;50.742;4.224;2023-04-25T00:29:00;5.87;;;2.00;;
20711;SDS011;10517;50.742;4.224;2023-04-25T00:31:26;13.70;;;2.57;;
20711;SDS011;10517;50.742;4.224;2023-04-25T00:33:51;14.90;;;3.00;;
20711;SDS011;10517;50.742;4.224;2023-04-25T00:36:18;11.60;;;2.10;;
20711;SDS011;10517;50.742;4.224;2023-04-25T00:38:43;7.37;;;2.40;;
20711;SDS011;10517;50.742;4.224;2023-04-25T00:41:09;14.57;;;2.83;;
20711;SDS011;10517;50.742;4.224;2023-04-25T00:43:35;12.03;;;2.50;;
20711;SDS011;10517;50.742;4.224;2023-04-25T00:46:02;8.17;;;2.77;;
20711;SDS011;10517;50.742;4.224;2023-04-25T00:48:28;4.87;;;1.70;;
20711;SDS011;10517;50.742;4.224;2023-04-25T00:50:55;7.50;;;2.37;;
20711;SDS011;10517;50.742;4.224;2023-04-25T00:53:25;8.77;;;2.50;;
20711;SDS011;10517;50.742;4.224;2023-04-25T00:55:52;17.10;;;1.97;;
20711;SDS011;10517;50.742;4.224;2023-04-25T00:58:19;14.40;;;2.50;;
20711;SDS011;10517;50.742;4.224;2023-04-25T01:00:46;5.50;;;2.00;;
20711;SDS011;10517;50.742;4.224;2023-04-25T01:03:14;6.90;;;1.87;;
20711;SDS011;10517;50.742;4.224;2023-04-25T01:05:45;13.37;;;2.87;;
20711;SDS011;10517;50.742;4.224;2023-04-25T01:08:12;11.80;;;3.20;;
20711;SDS011;10517;50.742;4.224;2023-04-25T01:10:37;15.47;;;2.70;;
20711;SDS011;10517;50.742;4.224;2023-04-25T01:13:03;10.63;;;2.57;;
20711;SDS011;10517;50.742;4.224;2023-04-25T01:15:29;12.63;;;1.90;;
20711;SDS011;10517;50.742;4.224;2023-04-25T01:17:55;11.10;;;2.37;;
20711;SDS011;10517;50.742;4.224;2023-04-25T01:20:22;9.03;;;2.63;;
20711;SDS011;10517;50.742;4.224;2023-04-25T01:22:48;11.53;;;2.73;;
20711;SDS011;10517;50.742;4.224;2023-04-25T01:25:15;11.13;;;2.37;;
20711;SDS011;10517;50.742;4.224;2023-04-25T01:27:41;6.37;;;2.03;;
20711;SDS011;10517;50.742;4.224;2023-04-25T01:30:07;9.33;;;2.40;;
20711;SDS011;10517;50.742;4.224;2023-04-25T01:32:34;11.27;;;2.33;;
20711;SDS011;10517;50.742;4.224;2023-04-25T01:35:07;9.00;;;2.40;;
20711;SDS011;10517;50.742;4.224;2023-04-25T01:37:39;11.77;;;2.43;;
20711;SDS011;10517;50.742;4.224;2023-04-25T01:40:08;11.30;;;2.77;;
20711;SDS011;10517;50.742;4.224;2023-04-25T01:42:36;9.03;;;2.33;;
20711;SDS011;10517;50.742;4.224;2023-04-25T01:45:03;11.43;;;2.97;;
20711;SDS011;10517;50.742;4.224;2023-04-25T01:47:29;7.97;;;2.37;;
20711;SDS011;10517;50.742;4.224;2023-04-25T01:49:55;11.03;;;2.20;;
20711;SDS011;10517;50.742;4.224;2023-04-25T01:52:21;11.73;;;3.73;;
20711;SDS011;10517;50.742;4.224;2023-04-25T01:54:46;11.87;;;2.27;;
20711;SDS011;10517;50.742;4.224;2023-04-25T01:57:13;9.50;;;2.73;;
20711;SDS011;10517;50.742;4.224;2023-04-25T01:59:39;13.17;;;2.60;;
20711;SDS011;10517;50.742;4.224;2023-04-25T02:02:06;9.43;;;2.17;;
20711;SDS011;10517;50.742;4.224;2023-04-25T02:04:32;10.73;;;2.73;;
20711;SDS011;10517;50.742;4.224;2023-04-25T02:06:58;12.07;;;2.23;;
20711;SDS011;10517;50.742;4.224;2023-04-25T02:09:23;12.33;;;2.23;;
20711;SDS011;10517;50.742;4.224;2023-04-25T02:11:49;15.57;;;2.20;;
20711;SDS011;10517;50.742;4.224;2023-04-25T02:14:15;7.03;;;2.50;;
20711;SDS011;10517;50.742;4.224;2023-04-25T02:16:41;13.73;;;2.43;;
20711;SDS011;10517;50.742;4.224;2023-04-25T02:19:09;5.63;;;1.93;;
20711;SDS011;10517;50.742;4.224;2023-04-25T02:21:35;14.20;;;3.73;;
20711;SDS011;10517;50.742;4.224;2023-04-25T02:24:01;12.33;;;2.70;;
20711;SDS011;10517;50.742;4.224;2023-04-25T02:26:27;10.97;;;2.80;;
20711;SDS011;10517;50.742;4.224;2023-04-25T02:28:53;21.87;;;3.87;;
20711;SDS011;10517;50.742;4.224;2023-04-25T02:31:19;9.63;;;3.20;;
20711;SDS011;10517;50.742;4.224;2023-04-25T02:33:44;7.80;;;2.80;;
20711;SDS011;10517;50.742;4.224;2023-04-25T02:36:10;18.27;;;3.60;;
20711;SDS011;10517;50.742;4.224;2023-04-25T02:38:36;7.73;;;2.30;;
20711;SDS011;10517;50.742;4.224;2023-04-25T02:41:01;8.50;;;2.83;;
20711;SDS011;10517;50.742;4.224;2023-04-25T02:43:27;16.00;;;2.27;;
20711;SDS011;10517;50.742;4.224;2023-04-25T02:45:53;6.47;;;2.10;;
20711;SDS011;10517;50.742;4.224;2023-04-25T02:48:18;5.93;;;2.53;;
20711;SDS011;10517;50.742;4.224;2023-04-25T02:50:44;11.97;;;3.10;;
20711;SDS011;10517;50.742;4.224;2023-04-25T02:53:10;4.97;;;2.73;;
20711;SDS011;10517;50.742;4.224;2023-04-25T02:55:35;14.97;;;3.03;;
20711;SDS011;10517;50.742;4.224;2023-04-25T02:58:01;18.57;;;3.53;;
20711;SDS011;10517;50.742;4.224;2023-04-25T03:00:27;14.60;;;2.57;;
20711;SDS011;10517;50.742;4.224;2023-04-25T03:02:52;13.33;;;3.93;;
20711;SDS011;10517;50.742;4.224;2023-04-25T03:05:18;9.50;;;3.20;;
20711;SDS011;10517;50.742;4.224;2023-04-25T03:07:44;20.10;;;4.00;;
20711;SDS011;10517;50.742;4.224;2023-04-25T03:10:10;9.37;;;4.07;;
20711;SDS011;10517;50.742;4.224;2023-04-25T03:12:36;7.43;;;2.50;;
20711;SDS011;10517;50.742;4.224;2023-04-25T03:15:02;3.97;;;2.20;;
20711;SDS011;10517;50.742;4.224;2023-04-25T03:17:28;7.37;;;2.80;;
20711;SDS011;10517;50.742;4.224;2023-04-25T03:19:55;4.07;;;2.57;;
20711;SDS011;10517;50.742;4.224;2023-04-25T03:22:21;11.80;;;2.67;;
20711;SDS011;10517;50.742;4.224;2023-04-25T03:24:47;5.83;;;2.80;;
20711;SDS011;10517;50.742;4.224;2023-04-25T03:27:13;20.23;;;2.90;;
20711;SDS011;10517;50.742;4.224;2023-04-25T03:29:38;14.53;;;3.30;;
20711;SDS011;10517;50.742;4.224;2023-04-25T03:32:05;11.77;;;2.63;;
20711;SDS011;10517;50.742;4.224;2023-04-25T03:34:31;7.73;;;2.53;;
20711;SDS011;10517;50.742;4.224;2023-04-25T03:36:56;9.83;;;3.07;;
20711;SDS011;10517;50.742;4.224;2023-04-25T03:39:22;9.73;;;2.57;;
20711;SDS011;10517;50.742;4.224;2023-04-25T03:41:48;10.00;;;2.77;;
20711;SDS011;10517;50.742;4.224;2023-04-25T03:44:13;9.17;;;3.10;;
20711;SDS011;10517;50.742;4.224;2023-04-25T03:46:39;6.73;;;2.67;;
20711;SDS011;10517;50.742;4.224;2023-04-25T03:49:05;16.80;;;3.03;;
20711;SDS011;10517;50.742;4.224;2023-04-25T03:51:31;7.17;;;2.20;;
20711;SDS011;10517;50.742;4.224;2023-04-25T03:53:56;12.63;;;2.37;;
20711;SDS011;10517;50.742;4.224;2023-04-25T03:56:22;4.37;;;2.20;;
20711;SDS011;10517;50.742;4.224;2023-04-25T03:58:47;14.70;;;3.03;;
20711;SDS011;10517;50.742;4.224;2023-04-25T04:01:13;12.80;;;3.00;;
20711;SDS011;10517;50.742;4.224;2023-04-25T04:03:39;9.00;;;2.23;;
20711;SDS011;10517;50.742;4.224;2023-04-25T04:06:05;7.40;;;2.00;;
20711;SDS011;10517;50.742;4.224;2023-04-25T04:08:32;10.33;;;2.20;;
20711;SDS011;10517;50.742;4.224;2023-04-25T04:10:58;11.20;;;2.47;;
20711;SDS011;10517;50.742;4.224;2023-04-25T04:13:27;11.80;;;4.00;;
20711;SDS011;10517;50.742;4.224;2023-04-25T04:15:53;6.70;;;2.57;;
20711;SDS011;10517;50.742;4.224;2023-04-25T04:18:20;7.90;;;2.20;;
20711;SDS011;10517;50.742;4.224;2023-04-25T04:20:46;16.13;;;4.47;;
20711;SDS011;10517;50.742;4.224;2023-04-25T04:23:12;13.37;;;2.63;;
20711;SDS011;10517;50.742;4.224;2023-04-25T04:25:37;7.57;;;2.60;;
20711;SDS011;10517;50.742;4.224;2023-04-25T04:28:04;12.70;;;2.33;;
20711;SDS011;10517;50.742;4.224;2023-04-25T04:30:31;6.97;;;3.13;;
20711;SDS011;10517;50.742;4.224;2023-04-25T04:32:58;10.63;;;2.33;;
20711;SDS011;10517;50.742;4.224;2023-04-25T04:35:25;5.83;;;2.37;;
20711;SDS011;10517;50.742;4.224;2023-04-25T04:37:51;17.67;;;2.07;;
20711;SDS011;10517;50.742;4.224;2023-04-25T04:40:17;13.90;;;2.80;;
20711;SDS011;10517;50.742;4.224;2023-04-25T04:42:43;10.20;;;3.07;;
20711;SDS011;10517;50.742;4.224;2023-04-25T04:45:10;12.97;;;3.23;;
20711;SDS011;10517;50.742;4.224;2023-04-25T04:47:37;6.27;;;2.17;;
20711;SDS011;10517;50.742;4.224;2023-04-25T04:50:04;14.30;;;2.43;;
20711;SDS011;10517;50.742;4.224;2023-04-25T04:52:32;10.70;;;2.63;;
20711;SDS011;10517;50.742;4.224;2023-04-25T04:54:57;7.10;;;1.90;;
20711;SDS011;10517;50.742;4.224;2023-04-25T04:57:23;13.10;;;2.70;;
20711;SDS011;10517;50.742;4.224;2023-04-25T04:59:49;11.37;;;2.03;;
20711;SDS011;10517;50.742;4.224;2023-04-25T05:02:15;12.70;;;2.07;;
20711;SDS011;10517;50.742;4.224;2023-04-25T05:04:41;8.47;;;1.90;;
20711;SDS011;10517;50.742;4.224;2023-04-25T05:07:06;11.20;;;2.30;;
20711;SDS011;10517;50.742;4.224;2023-04-25T05:09:32;15.50;;;3.03;;
20711;SDS011;10517;50.742;4.224;2023-04-25T05:11:57;10.57;;;2.20;;
20711;SDS011;10517;50.742;4.224;2023-04-25T05:14:23;6.93;;;2.10;;
20711;SDS011;10517;50.742;4.224;2023-04-25T05:16:49;12.03;;;2.73;;
20711;SDS011;10517;50.742;4.224;2023-04-25T05:19:14;7.43;;;3.03;;
20711;SDS011;10517;50.742;4.224;2023-04-25T05:21:40;5.03;;;2.37;;
20711;SDS011;10517;50.742;4.224;2023-04-25T05:24:06;11.53;;;2.77;;
20711;SDS011;10517;50.742;4.224;2023-04-25T05:26:31;10.57;;;2.87;;
20711;SDS011;10517;50.742;4.224;2023-04-25T05:28:57;5.47;;;2.07;;
20711;SDS011;10517;50.742;4.224;2023-04-25T05:31:23;6.33;;;2.17;;
20711;SDS011;10517;50.742;4.224;2023-04-25T05:33:48;11.33;;;2.50;;
20711;SDS011;10517;50.742;4.224;2023-04-25T05:36:14;9.43;;;2.40;;
20711;SDS011;10517;50.742;4.224;2023-04-25T05:38:40;16.27;;;3.80;;
20711;SDS011;10517;50.742;4.224;2023-04-25T05:41:05;8.10;;;2.47;;
20711;SDS011;10517;50.742;4.224;2023-04-25T05:43:32;9.30;;;2.87;;
20711;SDS011;10517;50.742;4.224;2023-04-25T05:45:57;8.43;;;2.57;;
20711;SDS011;10517;50.742;4.224;2023-04-25T05:48:23;16.00;;;2.27;;
20711;SDS011;10517;50.742;4.224;2023-04-25T05:50:49;15.57;;;3.10;;
20711;SDS011;10517;50.742;4.224;2023-04-25T05:53:16;10.87;;;3.27;;
20711;SDS011;10517;50.742;4.224;2023-04-25T05:55:42;6.17;;;2.47;;
20711;SDS011;10517;50.742;4.224;2023-04-25T05:58:08;7.90;;;2.43;;
20711;SDS011;10517;50.742;4.224;2023-04-25T06:00:33;8.03;;;2.80;;
20711;SDS011;10517;50.742;4.224;2023-04-25T06:02:59;8.67;;;2.43;;
20711;SDS011;10517;50.742;4.224;2023-04-25T06:05:25;9.33;;;2.40;;
20711;SDS011;10517;50.742;4.224;2023-04-25T06:07:50;7.03;;;2.17;;
20711;SDS011;10517;50.742;4.224;2023-04-25T06:10:16;12.90;;;2.00;;
20711;SDS011;10517;50.742;4.224;2023-04-25T06:12:41;9.70;;;2.10;;
20711;SDS011;10517;50.742;4.224;2023-04-25T06:15:07;10.27;;;3.37;;
20711;SDS011;10517;50.742;4.224;2023-04-25T06:17:34;6.50;;;2.40;;
20711;SDS011;10517;50.742;4.224;2023-04-25T06:20:00;5.03;;;2.33;;
20711;SDS011;10517;50.742;4.224;2023-04-25T06:22:26;11.73;;;2.60;;
20711;SDS011;10517;50.742;4.224;2023-04-25T06:24:52;5.37;;;2.30;;
20711;SDS011;10517;50.742;4.224;2023-04-25T06:27:17;9.63;;;2.87;;
20711;SDS011;10517;50.742;4.224;2023-04-25T06:29:43;15.20;;;2.80;;
20711;SDS011;10517;50.742;4.224;2023-04-25T06:32:09;7.00;;;2.40;;
20711;SDS011;10517;50.742;4.224;2023-04-25T06:34:34;8.03;;;1.77;;
20711;SDS011;10517;50.742;4.224;2023-04-25T06:37:00;9.77;;;2.07;;
20711;SDS011;10517;50.742;4.224;2023-04-25T06:39:26;4.73;;;1.73;;
20711;SDS011;10517;50.742;4.224;2023-04-25T06:41:51;11.70;;;1.83;;
20711;SDS011;10517;50.742;4.224;2023-04-25T06:44:18;4.40;;;1.80;;
20711;SDS011;10517;50.742;4.224;2023-04-25T06:46:43;9.20;;;2.57;;
20711;SDS011;10517;50.742;4.224;2023-04-25T06:49:09;10.53;;;1.93;;
20711;SDS011;10517;50.742;4.224;2023-04-25T06:51:35;8.43;;;1.73;;
20711;SDS011;10517;50.742;4.224;2023-04-25T06:54:01;5.50;;;1.83;;
20711;SDS011;10517;50.742;4.224;2023-04-25T06:56:27;14.03;;;2.07;;
20711;SDS011;10517;50.742;4.224;2023-04-25T06:58:54;12.57;;;1.93;;
20711;SDS011;10517;50.742;4.224;2023-04-25T07:01:20;9.67;;;2.67;;
20711;SDS011;10517;50.742;4.224;2023-04-25T07:03:45;4.47;;;2.23;;
20711;SDS011;10517;50.742;4.224;2023-04-25T07:06:11;6.70;;;2.13;;
20711;SDS011;10517;50.742;4.224;2023-04-25T07:08:37;3.97;;;1.50;;
20711;SDS011;10517;50.742;4.224;2023-04-25T07:11:02;4.17;;;1.57;;
20711;SDS011;10517;50.742;4.224;2023-04-25T07:13:28;6.60;;;1.90;;
20711;SDS011;10517;50.742;4.224;2023-04-25T07:15:54;10.93;;;1.70;;
20711;SDS011;10517;50.742;4.224;2023-04-25T07:18:19;4.93;;;1.20;;
20711;SDS011;10517;50.742;4.224;2023-04-25T07:20:45;6.47;;;1.70;;
20711;SDS011;10517;50.742;4.224;2023-04-25T07:23:10;5.73;;;1.37;;
20711;SDS011;10517;50.742;4.224;2023-04-25T07:25:36;7.67;;;1.80;;
20711;SDS011;10517;50.742;4.224;2023-04-25T07:28:02;3.40;;;1.67;;
20711;SDS011;10517;50.742;4.224;2023-04-25T07:30:27;4.50;;;1.53;;
20711;SDS011;10517;50.742;4.224;2023-04-25T07:32:53;6.43;;;1.40;;
20711;SDS011;10517;50.742;4.224;2023-04-25T07:35:19;5.50;;;1.40;;
20711;SDS011;10517;50.742;4.224;2023-04-25T07:37:45;5.33;;;1.40;;
20711;SDS011;10517;50.742;4.224;2023-04-25T07:40:10;6.80;;;1.47;;
20711;SDS011;10517;50.742;4.224;2023-04-25T07:42:36;5.33;;;1.57;;
20711;SDS011;10517;50.742;4.224;2023-04-25T07:45:02;6.47;;;1.13;;
20711;SDS011;10517;50.742;4.224;2023-04-25T07:47:28;3.87;;;1.50;;
20711;SDS011;10517;50.742;4.224;2023-04-25T07:49:54;6.43;;;1.40;;
20711;SDS011;10517;50.742;4.224;2023-04-25T07:52:19;5.83;;;1.60;;
20711;SDS011;10517;50.742;4.224;2023-04-25T07:54:46;5.53;;;1.30;;
20711;SDS011;10517;50.742;4.224;2023-04-25T07:57:12;3.23;;;1.07;;
20711;SDS011;10517;50.742;4.224;2023-04-25T07:59:39;4.40;;;1.13;;
20711;SDS011;10517;50.742;4.224;2023-04-25T08:02:05;4.43;;;1.33;;
20711;SDS011;10517;50.742;4.224;2023-04-25T08:04:30;6.67;;;1.10;;
20711;SDS011;10517;50.742;4.224;2023-04-25T08:06:56;3.10;;;0.90;;
20711;SDS011;10517;50.742;4.224;2023-04-25T08:09:22;4.87;;;1.07;;
20711;SDS011;10517;50.742;4.224;2023-04-25T08:11:47;7.23;;;1.50;;
20711;SDS011;10517;50.742;4.224;2023-04-25T08:14:13;8.00;;;1.30;;
20711;SDS011;10517;50.742;4.224;2023-04-25T08:16:39;6.43;;;1.07;;
20711;SDS011;10517;50.742;4.224;2023-04-25T08:19:05;6.73;;;2.00;;
20711;SDS011;10517;50.742;4.224;2023-04-25T08:21:30;10.60;;;1.77;;
20711;SDS011;10517;50.742;4.224;2023-04-25T08:23:57;5.77;;;1.43;;
20711;SDS011;10517;50.742;4.224;2023-04-25T08:26:26;4.23;;;1.23;;
20711;SDS011;10517;50.742;4.224;2023-04-25T08:28:51;4.33;;;1.30;;
20711;SDS011;10517;50.742;4.224;2023-04-25T08:31:17;9.37;;;1.83;;
20711;SDS011;10517;50.742;4.224;2023-04-25T08:33:46;5.47;;;1.37;;
20711;SDS011;10517;50.742;4.224;2023-04-25T08:36:12;1.93;;;0.90;;
20711;SDS011;10517;50.742;4.224;2023-04-25T08:38:37;4.07;;;1.70;;
20711;SDS011;10517;50.742;4.224;2023-04-25T08:41:03;5.90;;;1.30;;
20711;SDS011;10517;50.742;4.224;2023-04-25T08:43:31;1.77;;;1.03;;
20711;SDS011;10517;50.742;4.224;2023-04-25T08:46:00;8.20;;;1.00;;
20711;SDS011;10517;50.742;4.224;2023-04-25T08:48:26;7.40;;;1.37;;
20711;SDS011;10517;50.742;4.224;2023-04-25T08:50:54;6.10;;;1.33;;
20711;SDS011;10517;50.742;4.224;2023-04-25T08:53:22;7.27;;;1.90;;
20711;SDS011;10517;50.742;4.224;2023-04-25T08:55:50;3.83;;;2.30;;
20711;SDS011;10517;50.742;4.224;2023-04-25T08:58:21;12.77;;;1.87;;
20711;SDS011;10517;50.742;4.224;2023-04-25T09:00:47;4.40;;;1.10;;
20711;SDS011;10517;50.742;4.224;2023-04-25T09:03:14;6.07;;;1.40;;
20711;SDS011;10517;50.742;4.224;2023-04-25T09:05:40;8.83;;;1.93;;
20711;SDS011;10517;50.742;4.224;2023-04-25T09:08:06;4.33;;;0.83;;
20711;SDS011;10517;50.742;4.224;2023-04-25T09:10:32;2.93;;;1.30;;
20711;SDS011;10517;50.742;4.224;2023-04-25T09:13:02;2.25;;;1.27;;
20711;SDS011;10517;50.742;4.224;2023-04-25T09:15:31;9.27;;;1.25;;
20711;SDS011;10517;50.742;4.224;2023-04-25T09:17:58;5.47;;;1.40;;
20711;SDS011;10517;50.742;4.224;2023-04-25T09:20:24;3.47;;;1.20;;
20711;SDS011;10517;50.742;4.224;2023-04-25T09:23:00;9.43;;;1.10;;
20711;SDS011;10517;50.742;4.224;2023-04-25T09:25:34;2.60;;;1.20;;
20711;SDS011;10517;50.742;4.224;2023-04-25T09:28:03;5.60;;;1.50;;
20711;SDS011;10517;50.742;4.224;2023-04-25T09:30:30;1.23;;;1.03;;
20711;SDS011;10517;50.742;4.224;2023-04-25T09:33:03;3.60;;;0.80;;
20711;SDS011;10517;50.742;4.224;2023-04-25T09:35:32;0.83;;;0.70;;
20711;SDS011;10517;50.742;4.224;2023-04-25T09:38:08;2.97;;;1.10;;
20711;SDS011;10517;50.742;4.224;2023-04-25T09:40:41;12.90;;;1.87;;
20711;SDS011;10517;50.742;4.224;2023-04-25T09:43:08;4.13;;;1.03;;
20711;SDS011;10517;50.742;4.224;2023-04-25T09:45:40;3.80;;;1.67;;
20711;SDS011;10517;50.742;4.224;2023-04-25T09:48:10;9.70;;;1.20;;
20711;SDS011;10517;50.742;4.224;2023-04-25T09:50:36;3.42;;;1.58;;
20711;SDS011;10517;50.742;4.224;2023-04-25T09:53:03;1.35;;;0.95;;
20711;SDS011;10517;50.742;4.224;2023-04-25T09:55:31;3.70;;;1.02;;
20711;SDS011;10517;50.742;4.224;2023-04-25T09:58:00;5.27;;;1.30;;
20711;SDS011;10517;50.742;4.224;2023-04-25T10:00:33;1.47;;;1.10;;
20711;SDS011;10517;50.742;4.224;2023-04-25T10:03:03;2.73;;;1.30;;
20711;SDS011;10517;50.742;4.224;2023-04-25T10:05:32;4.97;;;1.30;;
20711;SDS011;10517;50.742;4.224;2023-04-25T10:08:02;12.50;;;1.90;;
20711;SDS011;10517;50.742;4.224;2023-04-25T10:10:31;8.50;;;1.53;;
20711;SDS011;10517;50.742;4.224;2023-04-25T10:13:01;1.10;;;0.68;;
20711;SDS011;10517;50.742;4.224;2023-04-25T10:15:32;3.70;;;1.63;;
20711;SDS011;10517;50.742;4.224;2023-04-25T10:18:00;2.93;;;0.83;;
20711;SDS011;10517;50.742;4.224;2023-04-25T10:20:27;1.50;;;0.85;;
20711;SDS011;10517;50.742;4.224;2023-04-25T10:22:54;4.82;;;1.85;;
20711;SDS011;10517;50.742;4.224;2023-04-25T10:25:23;3.55;;;0.90;;
20711;SDS011;10517;50.742;4.224;2023-04-25T10:27:52;1.05;;;0.90;;
20711;SDS011;10517;50.742;4.224;2023-04-25T10:30:19;3.67;;;1.52;;
20711;SDS011;10517;50.742;4.224;2023-04-25T10:32:45;1.13;;;0.65;;
20711;SDS011;10517;50.742;4.224;2023-04-25T10:35:28;2.83;;;1.35;;
20711;SDS011;10517;50.742;4.224;2023-04-25T10:40:30;4.53;;;1.55;;
20711;SDS011;10517;50.742;4.224;2023-04-25T10:45:55;5.10;;;1.02;;
20711;SDS011;10517;50.742;4.224;2023-04-25T10:48:28;3.22;;;0.82;;
20711;SDS011;10517;50.742;4.224;2023-04-25T10:51:10;1.63;;;0.70;;
20711;SDS011;10517;50.742;4.224;2023-04-25T10:53:37;1.80;;;0.80;;
20711;SDS011;10517;50.742;4.224;2023-04-25T10:56:36;1.00;;;0.77;;
20711;SDS011;10517;50.742;4.224;2023-04-25T10:59:12;3.38;;;0.80;;
20711;SDS011;10517;50.742;4.224;2023-04-25T11:01:39;4.07;;;0.90;;
20711;SDS011;10517;50.742;4.224;2023-04-25T11:04:06;2.17;;;0.90;;
20711;SDS011;10517;50.742;4.224;2023-04-25T11:06:50;0.97;;;0.60;;
20711;SDS011;10517;50.742;4.224;2023-04-25T11:09:27;1.93;;;1.00;;
20711;SDS011;10517;50.742;4.224;2023-04-25T11:11:57;2.93;;;1.13;;
20711;SDS011;10517;50.742;4.224;2023-04-25T11:14:24;0.63;;;0.60;;
20711;SDS011;10517;50.742;4.224;2023-04-25T11:16:56;2.77;;;0.87;;
20711;SDS011;10517;50.742;4.224;2023-04-25T11:19:23;1.23;;;0.70;;
20711;SDS011;10517;50.742;4.224;2023-04-25T11:21:55;4.93;;;0.77;;
20711;SDS011;10517;50.742;4.224;2023-04-25T11:24:31;4.10;;;1.07;;
20711;SDS011;10517;50.742;4.224;2023-04-25T11:26:58;2.33;;;1.13;;
20711;SDS011;10517;50.742;4.224;2023-04-25T11:29:31;0.73;;;0.60;;
20711;SDS011;10517;50.742;4.224;2023-04-25T11:31:58;3.47;;;1.30;;
20711;SDS011;10517;50.742;4.224;2023-04-25T11:34:26;3.07;;;0.70;;
20711;SDS011;10517;50.742;4.224;2023-04-25T11:36:55;7.03;;;0.90;;
20711;SDS011;10517;50.742;4.224;2023-04-25T11:39:23;5.50;;;0.90;;
20711;SDS011;10517;50.742;4.224;2023-04-25T11:41:49;2.67;;;0.50;;
20711;SDS011;10517;50.742;4.224;2023-04-25T11:44:16;10.30;;;1.73;;
20711;SDS011;10517;50.742;4.224;2023-04-25T11:46:42;2.40;;;0.80;;
20711;SDS011;10517;50.742;4.224;2023-04-25T11:49:08;5.00;;;0.60;;
20711;SDS011;10517;50.742;4.224;2023-04-25T11:51:52;5.25;;;1.15;;
20711;SDS011;10517;50.742;4.224;2023-04-25T11:54:18;3.00;;;1.13;;
20711;SDS011;10517;50.742;4.224;2023-04-25T11:56:44;3.13;;;0.93;;
20711;SDS011;10517;50.742;4.224;2023-04-25T11:59:10;4.68;;;1.10;;
20711;SDS011;10517;50.742;4.224;2023-04-25T12:01:46;8.25;;;0.90;;
20711;SDS011;10517;50.742;4.224;2023-04-25T12:04:14;2.58;;;0.70;;
20711;SDS011;10517;50.742;4.224;2023-04-25T12:06:41;1.15;;;0.82;;
20711;SDS011;10517;50.742;4.224;2023-04-25T12:09:08;1.40;;;0.70;;
20711;SDS011;10517;50.742;4.224;2023-04-25T12:11:42;5.38;;;1.65;;
20711;SDS011;10517;50.742;4.224;2023-04-25T12:14:12;5.28;;;1.00;;
20711;SDS011;10517;50.742;4.224;2023-04-25T12:16:47;5.28;;;1.00;;
20711;SDS011;10517;50.742;4.224;2023-04-25T12:19:14;2.65;;;1.13;;
20711;SDS011;10517;50.742;4.224;2023-04-25T12:21:41;2.40;;;0.90;;
20711;SDS011;10517;50.742;4.224;2023-04-25T12:24:15;3.53;;;0.90;;
20711;SDS011;10517;50.742;4.224;2023-04-25T12:26:46;1.75;;;0.82;;
20711;SDS011;10517;50.742;4.224;2023-04-25T12:29:18;4.65;;;0.90;;
20711;SDS011;10517;50.742;4.224;2023-04-25T12:31:49;1.00;;;0.77;;
20711;SDS011;10517;50.742;4.224;2023-04-25T12:34:16;1.50;;;0.70;;
20711;SDS011;10517;50.742;4.224;2023-04-25T12:36:44;3.40;;;1.05;;
20711;SDS011;10517;50.742;4.224;2023-04-25T12:39:20;1.35;;;1.00;;
20711;SDS011;10517;50.742;4.224;2023-04-25T12:41:48;2.47;;;0.95;;
20711;SDS011;10517;50.742;4.224;2023-04-25T12:44:15;1.25;;;0.85;;
20711;SDS011;10517;50.742;4.224;2023-04-25T12:46:42;1.85;;;0.95;;
20711;SDS011;10517;50.742;4.224;2023-04-25T12:49:07;0.85;;;0.70;;
20711;SDS011;10517;50.742;4.224;2023-04-25T12:51:36;4.53;;;0.80;;
20711;SDS011;10517;50.742;4.224;2023-04-25T12:54:03;1.10;;;0.80;;
20711;SDS011;10517;50.742;4.224;2023-04-25T12:56:30;4.18;;;1.10;;
20711;SDS011;10517;50.742;4.224;2023-04-25T12:58:56;1.83;;;0.88;;
20711;SDS011;10517;50.742;4.224;2023-04-25T13:01:22;5.95;;;1.08;;
20711;SDS011;10517;50.742;4.224;2023-04-25T13:03:49;2.05;;;1.00;;
20711;SDS011;10517;50.742;4.224;2023-04-25T13:06:15;2.25;;;0.90;;
20711;SDS011;10517;50.742;4.224;2023-04-25T13:08:42;1.77;;;1.10;;
20711;SDS011;10517;50.742;4.224;2023-04-25T13:11:07;4.25;;;1.38;;
20711;SDS011;10517;50.742;4.224;2023-04-25T13:13:33;3.83;;;0.88;;
20711;SDS011;10517;50.742;4.224;2023-04-25T13:16:02;2.67;;;0.80;;
20711;SDS011;10517;50.742;4.224;2023-04-25T13:18:29;1.85;;;1.23;;
20711;SDS011;10517;50.742;4.224;2023-04-25T13:20:58;1.35;;;0.80;;
20711;SDS011;10517;50.742;4.224;2023-04-25T13:23:25;0.82;;;0.80;;
20711;SDS011;10517;50.742;4.224;2023-04-25T13:25:52;2.40;;;1.55;;
20711;SDS011;10517;50.742;4.224;2023-04-25T13:28:18;3.55;;;1.10;;
20711;SDS011;10517;50.742;4.224;2023-04-25T13:30:44;3.05;;;0.85;;
20711;SDS011;10517;50.742;4.224;2023-04-25T13:33:10;3.83;;;0.95;;
20711;SDS011;10517;50.742;4.224;2023-04-25T13:35:37;1.58;;;0.80;;
20711;SDS011;10517;50.742;4.224;2023-04-25T13:38:03;1.63;;;0.68;;
20711;SDS011;10517;50.742;4.224;2023-04-25T13:40:29;3.50;;;0.70;;
20711;SDS011;10517;50.742;4.224;2023-04-25T13:42:55;4.65;;;1.38;;
20711;SDS011;10517;50.742;4.224;2023-04-25T13:45:21;5.40;;;1.40;;
20711;SDS011;10517;50.742;4.224;2023-04-25T13:47:47;5.20;;;1.60;;
20711;SDS011;10517;50.742;4.224;2023-04-25T13:50:12;4.57;;;0.90;;
20711;SDS011;10517;50.742;4.224;2023-04-25T13:52:39;3.97;;;0.80;;
20711;SDS011;10517;50.742;4.224;2023-04-25T13:55:05;2.45;;;0.90;;
20711;SDS011;10517;50.742;4.224;2023-04-25T13:57:32;3.25;;;1.02;;
20711;SDS011;10517;50.742;4.224;2023-04-25T13:59:58;2.78;;;0.75;;
20711;SDS011;10517;50.742;4.224;2023-04-25T14:02:24;2.45;;;0.95;;
20711;SDS011;10517;50.742;4.224;2023-04-25T14:04:50;3.92;;;0.98;;
20711;SDS011;10517;50.742;4.224;2023-04-25T14:07:16;2.33;;;1.00;;
20711;SDS011;10517;50.742;4.224;2023-04-25T14:09:44;3.80;;;1.38;;
20711;SDS011;10517;50.742;4.224;2023-04-25T14:12:10;5.43;;;1.00;;
20711;SDS011;10517;50.742;4.224;2023-04-25T14:14:36;3.58;;;0.80;;
20711;SDS011;10517;50.742;4.224;2023-04-25T14:17:02;3.85;;;1.00;;
20711;SDS011;10517;50.742;4.224;2023-04-25T14:19:28;5.20;;;1.10;;
20711;SDS011;10517;50.742;4.224;2023-04-25T14:21:54;1.95;;;0.70;;
20711;SDS011;10517;50.742;4.224;2023-04-25T14:24:20;4.50;;;1.13;;
20711;SDS011;10517;50.742;4.224;2023-04-25T14:26:46;4.03;;;0.80;;
20711;SDS011;10517;50.742;4.224;2023-04-25T14:29:11;1.30;;;1.00;;
20711;SDS011;10517;50.742;4.224;2023-04-25T14:31:37;3.78;;;1.00;;
20711;SDS011;10517;50.742;4.224;2023-04-25T14:34:05;2.55;;;1.13;;
20711;SDS011;10517;50.742;4.224;2023-04-25T14:36:31;3.88;;;1.00;;
20711;SDS011;10517;50.742;4.224;2023-04-25T14:38:58;4.93;;;1.20;;
20711;SDS011;10517;50.742;4.224;2023-04-25T14:41:24;3.75;;;0.80;;
20711;SDS011;10517;50.742;4.224;2023-04-25T14:43:50;2.65;;;0.98;;
20711;SDS011;10517;50.742;4.224;2023-04-25T14:46:17;2.92;;;1.08;;
20711;SDS011;10517;50.742;4.224;2023-04-25T14:48:43;3.13;;;1.27;;